Pagrindinis puslapis
METAR-TAF:

METAR-TAF

Oro uostai :

Stord, Norvegija

platuma: 59-48N, ilguma: 005-21E, Aukštis: 49 m

Dabartinis oras

Ataskaita buvo paskelbta 9 valandos ir 2 minutes, ne 17:20 UTC
Vėjas 10 kt iš Pietryčių
Temperatūra 15°C
Drėgmė 72%
Slėgis 1008 hPa
Matomumas 10 km arba daugiau
Išsisklaidę debesys ne aukštis 4000 ft
Išsisklaidę debesys ne aukštis 5500 ft

METAR: ENSO 301720Z 13010KT 9999 SCT040 SCT055 15/10 Q1008

Laikas: 04:22 (02:22 UTC)

Prognozė

Ataskaita buvo paskelbta 12 valandos ir 22 minutes, ne 14:00 UTC
Prognozė galioja nuo 30 metu 15 UTC su 30 metu 18 UTC
Vėjas 10 kt iš Pietų/Pietryčių
Matomumas 10 km arba daugiau
Išsisklaidę debesys ne aukštis 3500 ft
Su prošvaistėmis ne aukštis 6000 ft
lietus
Tikimybė 30% :
Laikinai
nuo 30 metu 15 UTC su 30 metu 18 UTC
Vėjas 15 kt iš Pietų/Pietryčių su gūsio iki 25 kt

TAF: ENSO 301400Z 3015/3018 15010KT 9999 -SHRA SCT035 BKN060 PROB30 TEMPO 3015/3018 15015G25KT

Orai ataskaitas ir orų prognozės (METAR, TAF).

turimą stotys yra geltonos ir raudonos taškus žemėlapyje.

Perkelti pele per norėdami pamatyti stoties vardą.

Tada spustelėkite, norėdami matyti oro stebėjimo ir prognozės.

Norėdami pakeisti žemėlapį: spustelėkite ant žalios mygtukų su juodo kryžiaus žemyn,; žalią mygtuką su brūkšneliu, jei norite nutolinti; arba žalių rodyklių gretimoms žemėlapius.


METAR-TAF: